sensor_id;sensor_type;location;lat;lon;timestamp;P1;durP1;ratioP1;P2;durP2;ratioP2
9186;SDS011;7273;48.902;9.410;2022-10-04T00:00:24;1.08;;;0.55;;
9186;SDS011;7273;48.902;9.410;2022-10-04T00:03:06;0.45;;;0.45;;
9186;SDS011;7273;48.902;9.410;2022-10-04T00:05:42;1.45;;;0.82;;
9186;SDS011;7273;48.902;9.410;2022-10-04T00:11:33;0.10;;;0.10;;
9186;SDS011;7273;48.902;9.410;2022-10-04T00:14:04;0.30;;;0.15;;
9186;SDS011;7273;48.902;9.410;2022-10-04T00:16:50;1.90;;;0.57;;
9186;SDS011;7273;48.902;9.410;2022-10-04T00:36:59;0.32;;;0.32;;
9186;SDS011;7273;48.902;9.410;2022-10-04T00:41:59;0.80;;;0.40;;
9186;SDS011;7273;48.902;9.410;2022-10-04T00:44:32;0.55;;;0.50;;
9186;SDS011;7273;48.902;9.410;2022-10-04T00:47:02;0.52;;;0.45;;
9186;SDS011;7273;48.902;9.410;2022-10-04T00:49:37;1.45;;;1.15;;
9186;SDS011;7273;48.902;9.410;2022-10-04T00:52:12;0.73;;;0.30;;
9186;SDS011;7273;48.902;9.410;2022-10-04T00:54:53;0.25;;;0.25;;
9186;SDS011;7273;48.902;9.410;2022-10-04T00:57:28;0.28;;;0.25;;
9186;SDS011;7273;48.902;9.410;2022-10-04T01:00:05;0.22;;;0.22;;
9186;SDS011;7273;48.902;9.410;2022-10-04T01:07:53;1.17;;;0.70;;
9186;SDS011;7273;48.902;9.410;2022-10-04T01:10:32;1.00;;;0.30;;
9186;SDS011;7273;48.902;9.410;2022-10-04T01:20:51;0.50;;;0.50;;
9186;SDS011;7273;48.902;9.410;2022-10-04T01:28:54;0.10;;;0.10;;
9186;SDS011;7273;48.902;9.410;2022-10-04T01:31:20;0.55;;;0.43;;
9186;SDS011;7273;48.902;9.410;2022-10-04T01:33:46;1.05;;;0.95;;
9186;SDS011;7273;48.902;9.410;2022-10-04T01:36:12;0.20;;;0.20;;
9186;SDS011;7273;48.902;9.410;2022-10-04T01:38:37;0.45;;;0.20;;
9186;SDS011;7273;48.902;9.410;2022-10-04T01:41:03;1.38;;;0.30;;
9186;SDS011;7273;48.902;9.410;2022-10-04T01:43:32;0.68;;;0.40;;
9186;SDS011;7273;48.902;9.410;2022-10-04T01:46:12;0.47;;;0.40;;
9186;SDS011;7273;48.902;9.410;2022-10-04T01:48:44;1.17;;;0.73;;
9186;SDS011;7273;48.902;9.410;2022-10-04T01:51:18;0.10;;;0.10;;
9186;SDS011;7273;48.902;9.410;2022-10-04T01:53:53;0.43;;;0.20;;
9186;SDS011;7273;48.902;9.410;2022-10-04T01:56:26;1.88;;;1.02;;
9186;SDS011;7273;48.902;9.410;2022-10-04T01:59:02;0.65;;;0.38;;
9186;SDS011;7273;48.902;9.410;2022-10-04T02:04:19;0.00;;;0.00;;
9186;SDS011;7273;48.902;9.410;2022-10-04T02:06:49;0.73;;;0.32;;
9186;SDS011;7273;48.902;9.410;2022-10-04T02:09:24;0.20;;;0.20;;
9186;SDS011;7273;48.902;9.410;2022-10-04T02:11:53;0.45;;;0.10;;
9186;SDS011;7273;48.902;9.410;2022-10-04T02:14:26;0.70;;;0.30;;
9186;SDS011;7273;48.902;9.410;2022-10-04T02:16:57;0.00;;;0.00;;
9186;SDS011;7273;48.902;9.410;2022-10-04T02:19:25;0.17;;;0.17;;
9186;SDS011;7273;48.902;9.410;2022-10-04T02:21:59;0.10;;;0.10;;
9186;SDS011;7273;48.902;9.410;2022-10-04T02:24:32;2.05;;;0.65;;
9186;SDS011;7273;48.902;9.410;2022-10-04T02:27:01;0.20;;;0.20;;
9186;SDS011;7273;48.902;9.410;2022-10-04T02:29:27;0.32;;;0.20;;
9186;SDS011;7273;48.902;9.410;2022-10-04T02:31:52;0.20;;;0.20;;
9186;SDS011;7273;48.902;9.410;2022-10-04T02:34:37;0.20;;;0.20;;
9186;SDS011;7273;48.902;9.410;2022-10-04T02:37:04;0.30;;;0.22;;
9186;SDS011;7273;48.902;9.410;2022-10-04T02:39:45;0.10;;;0.10;;
9186;SDS011;7273;48.902;9.410;2022-10-04T02:45:00;0.30;;;0.10;;
9186;SDS011;7273;48.902;9.410;2022-10-04T02:47:39;0.40;;;0.13;;
9186;SDS011;7273;48.902;9.410;2022-10-04T02:50:16;0.30;;;0.30;;
9186;SDS011;7273;48.902;9.410;2022-10-04T02:55:50;0.15;;;0.10;;
9186;SDS011;7273;48.902;9.410;2022-10-04T02:58:18;0.85;;;0.40;;
9186;SDS011;7273;48.902;9.410;2022-10-04T03:00:51;0.10;;;0.10;;
9186;SDS011;7273;48.902;9.410;2022-10-04T03:03:33;0.17;;;0.17;;
9186;SDS011;7273;48.902;9.410;2022-10-04T03:06:16;0.05;;;0.05;;
9186;SDS011;7273;48.902;9.410;2022-10-04T03:11:26;0.88;;;0.20;;
9186;SDS011;7273;48.902;9.410;2022-10-04T03:13:58;0.35;;;0.17;;
9186;SDS011;7273;48.902;9.410;2022-10-04T03:16:25;0.20;;;0.20;;
9186;SDS011;7273;48.902;9.410;2022-10-04T03:18:52;0.15;;;0.10;;
9186;SDS011;7273;48.902;9.410;2022-10-04T03:21:21;1.45;;;0.65;;
9186;SDS011;7273;48.902;9.410;2022-10-04T03:23:48;0.20;;;0.20;;
9186;SDS011;7273;48.902;9.410;2022-10-04T03:28:48;266.23;;;100.18;;
9186;SDS011;7273;48.902;9.410;2022-10-04T03:31:13;412.92;;;136.35;;
9186;SDS011;7273;48.902;9.410;2022-10-04T03:33:40;504.05;;;174.55;;
9186;SDS011;7273;48.902;9.410;2022-10-04T03:36:10;268.50;;;105.60;;
9186;SDS011;7273;48.902;9.410;2022-10-04T03:38:39;72.00;;;32.67;;
9186;SDS011;7273;48.902;9.410;2022-10-04T03:41:04;1.63;;;1.17;;
9186;SDS011;7273;48.902;9.410;2022-10-04T03:43:31;0.52;;;0.52;;
9186;SDS011;7273;48.902;9.410;2022-10-04T03:46:01;0.00;;;0.00;;
9186;SDS011;7273;48.902;9.410;2022-10-04T03:48:31;0.17;;;0.17;;
9186;SDS011;7273;48.902;9.410;2022-10-04T03:51:04;0.60;;;0.38;;
9186;SDS011;7273;48.902;9.410;2022-10-04T03:53:33;0.50;;;0.28;;
9186;SDS011;7273;48.902;9.410;2022-10-04T03:56:02;0.38;;;0.10;;
9186;SDS011;7273;48.902;9.410;2022-10-04T03:58:34;0.30;;;0.22;;
9186;SDS011;7273;48.902;9.410;2022-10-04T04:01:04;0.75;;;0.22;;
9186;SDS011;7273;48.902;9.410;2022-10-04T04:03:45;0.25;;;0.17;;
9186;SDS011;7273;48.902;9.410;2022-10-04T04:06:14;1.65;;;0.35;;
9186;SDS011;7273;48.902;9.410;2022-10-04T04:08:42;0.08;;;0.08;;
9186;SDS011;7273;48.902;9.410;2022-10-04T04:11:16;0.30;;;0.30;;
9186;SDS011;7273;48.902;9.410;2022-10-04T04:16:35;0.50;;;0.30;;
9186;SDS011;7273;48.902;9.410;2022-10-04T04:19:01;1.63;;;0.40;;
9186;SDS011;7273;48.902;9.410;2022-10-04T04:21:29;0.30;;;0.30;;
9186;SDS011;7273;48.902;9.410;2022-10-04T04:23:57;0.57;;;0.40;;
9186;SDS011;7273;48.902;9.410;2022-10-04T04:26:28;2.15;;;0.45;;
9186;SDS011;7273;48.902;9.410;2022-10-04T04:31:52;0.03;;;0.03;;
9186;SDS011;7273;48.902;9.410;2022-10-04T04:34:24;0.65;;;0.32;;
9186;SDS011;7273;48.902;9.410;2022-10-04T04:36:57;0.30;;;0.30;;
9186;SDS011;7273;48.902;9.410;2022-10-04T04:39:24;0.20;;;0.20;;
9186;SDS011;7273;48.902;9.410;2022-10-04T04:42:15;0.20;;;0.13;;
9186;SDS011;7273;48.902;9.410;2022-10-04T04:47:41;0.35;;;0.32;;
9186;SDS011;7273;48.902;9.410;2022-10-04T04:50:19;0.15;;;0.15;;
9186;SDS011;7273;48.902;9.410;2022-10-04T04:52:47;0.98;;;0.57;;
9186;SDS011;7273;48.902;9.410;2022-10-04T04:55:17;0.13;;;0.13;;
9186;SDS011;7273;48.902;9.410;2022-10-04T04:57:45;0.20;;;0.17;;
9186;SDS011;7273;48.902;9.410;2022-10-04T05:00:16;0.73;;;0.30;;
9186;SDS011;7273;48.902;9.410;2022-10-04T05:02:50;0.93;;;0.75;;
9186;SDS011;7273;48.902;9.410;2022-10-04T05:05:23;0.05;;;0.03;;
9186;SDS011;7273;48.902;9.410;2022-10-04T05:08:47;0.20;;;0.20;;
9186;SDS011;7273;48.902;9.410;2022-10-04T05:13:46;0.20;;;0.20;;
9186;SDS011;7273;48.902;9.410;2022-10-04T05:16:32;0.70;;;0.35;;
9186;SDS011;7273;48.902;9.410;2022-10-04T05:19:22;1.05;;;0.47;;
9186;SDS011;7273;48.902;9.410;2022-10-04T05:21:53;1.17;;;0.38;;
9186;SDS011;7273;48.902;9.410;2022-10-04T05:26:52;0.03;;;0.03;;
9186;SDS011;7273;48.902;9.410;2022-10-04T05:29:22;0.20;;;0.20;;
9186;SDS011;7273;48.902;9.410;2022-10-04T05:34:35;0.20;;;0.20;;
9186;SDS011;7273;48.902;9.410;2022-10-04T05:39:35;1.35;;;0.52;;
9186;SDS011;7273;48.902;9.410;2022-10-04T05:42:04;0.00;;;0.00;;
9186;SDS011;7273;48.902;9.410;2022-10-04T05:47:18;0.68;;;0.32;;
9186;SDS011;7273;48.902;9.410;2022-10-04T05:49:48;0.08;;;0.03;;
9186;SDS011;7273;48.902;9.410;2022-10-04T05:52:26;0.10;;;0.10;;
9186;SDS011;7273;48.902;9.410;2022-10-04T06:00:44;7.43;;;0.60;;
9186;SDS011;7273;48.902;9.410;2022-10-04T06:11:03;1.08;;;0.88;;
9186;SDS011;7273;48.902;9.410;2022-10-04T06:16:28;0.05;;;0.05;;
9186;SDS011;7273;48.902;9.410;2022-10-04T06:24:29;0.10;;;0.10;;
9186;SDS011;7273;48.902;9.410;2022-10-04T06:27:03;0.70;;;0.68;;
9186;SDS011;7273;48.902;9.410;2022-10-04T06:29:48;2.17;;;0.75;;
9186;SDS011;7273;48.902;9.410;2022-10-04T06:40:57;0.70;;;0.65;;
9186;SDS011;7273;48.902;9.410;2022-10-04T06:43:49;0.22;;;0.22;;
9186;SDS011;7273;48.902;9.410;2022-10-04T06:51:47;0.17;;;0.10;;
9186;SDS011;7273;48.902;9.410;2022-10-04T06:54:42;2.17;;;0.95;;
9186;SDS011;7273;48.902;9.410;2022-10-04T07:08:20;2.30;;;0.70;;
9186;SDS011;7273;48.902;9.410;2022-10-04T07:13:53;0.13;;;0.13;;
9186;SDS011;7273;48.902;9.410;2022-10-04T07:27:36;0.95;;;0.63;;
9186;SDS011;7273;48.902;9.410;2022-10-04T07:30:16;1.02;;;0.40;;
9186;SDS011;7273;48.902;9.410;2022-10-04T07:32:45;0.85;;;0.52;;
9186;SDS011;7273;48.902;9.410;2022-10-04T07:40:35;0.68;;;0.40;;
9186;SDS011;7273;48.902;9.410;2022-10-04T07:43:04;1.65;;;1.45;;
9186;SDS011;7273;48.902;9.410;2022-10-04T07:45:35;1.52;;;0.50;;
9186;SDS011;7273;48.902;9.410;2022-10-04T07:48:09;0.22;;;0.22;;
9186;SDS011;7273;48.902;9.410;2022-10-04T07:58:51;0.98;;;0.65;;
9186;SDS011;7273;48.902;9.410;2022-10-04T08:01:21;1.45;;;0.88;;
9186;SDS011;7273;48.902;9.410;2022-10-04T08:03:58;0.40;;;0.40;;
9186;SDS011;7273;48.902;9.410;2022-10-04T08:15:09;0.60;;;0.55;;
9186;SDS011;7273;48.902;9.410;2022-10-04T08:20:48;0.95;;;0.57;;
9186;SDS011;7273;48.902;9.410;2022-10-04T08:23:35;0.25;;;0.25;;
9186;SDS011;7273;48.902;9.410;2022-10-04T08:51:47;0.73;;;0.22;;
9186;SDS011;7273;48.902;9.410;2022-10-04T09:02:39;0.45;;;0.45;;
9186;SDS011;7273;48.902;9.410;2022-10-04T09:08:08;0.30;;;0.30;;
9186;SDS011;7273;48.902;9.410;2022-10-04T09:13:10;0.30;;;0.20;;
9186;SDS011;7273;48.902;9.410;2022-10-04T09:15:50;0.43;;;0.30;;
9186;SDS011;7273;48.902;9.410;2022-10-04T09:21:09;3.63;;;0.73;;
9186;SDS011;7273;48.902;9.410;2022-10-04T09:29:48;2.28;;;0.63;;
9186;SDS011;7273;48.902;9.410;2022-10-04T09:40:57;2.08;;;0.47;;
9186;SDS011;7273;48.902;9.410;2022-10-04T09:57:33;0.25;;;0.25;;
9186;SDS011;7273;48.902;9.410;2022-10-04T10:00:15;1.42;;;0.50;;
9186;SDS011;7273;48.902;9.410;2022-10-04T10:08:30;4.50;;;0.32;;
9186;SDS011;7273;48.902;9.410;2022-10-04T10:11:12;0.60;;;0.30;;
9186;SDS011;7273;48.902;9.410;2022-10-04T10:16:52;1.02;;;0.55;;
9186;SDS011;7273;48.902;9.410;2022-10-04T11:03:29;2.85;;;0.73;;
9186;SDS011;7273;48.902;9.410;2022-10-04T11:28:51;0.82;;;0.65;;
9186;SDS011;7273;48.902;9.410;2022-10-04T11:52:09;3.47;;;0.73;;
9186;SDS011;7273;48.902;9.410;2022-10-04T11:57:23;2.78;;;0.70;;
9186;SDS011;7273;48.902;9.410;2022-10-04T12:33:16;0.60;;;0.30;;
9186;SDS011;7273;48.902;9.410;2022-10-04T12:52:17;3.58;;;0.63;;
9186;SDS011;7273;48.902;9.410;2022-10-04T12:58:48;11.20;;;1.55;;
9186;SDS011;7273;48.902;9.410;2022-10-04T13:00:57;1.38;;;0.73;;
9186;SDS011;7273;48.902;9.410;2022-10-04T13:04:02;0.85;;;0.40;;
9186;SDS011;7273;48.902;9.410;2022-10-04T13:06:32;1.85;;;0.63;;
9186;SDS011;7273;48.902;9.410;2022-10-04T13:47:19;2.70;;;0.57;;
9186;SDS011;7273;48.902;9.410;2022-10-04T13:53:01;1.65;;;0.55;;
9186;SDS011;7273;48.902;9.410;2022-10-04T13:56:14;2.15;;;0.50;;
9186;SDS011;7273;48.902;9.410;2022-10-04T13:59:22;1.45;;;0.40;;
9186;SDS011;7273;48.902;9.410;2022-10-04T14:32:13;0.38;;;0.25;;
9186;SDS011;7273;48.902;9.410;2022-10-04T14:45:53;0.25;;;0.22;;
9186;SDS011;7273;48.902;9.410;2022-10-04T14:51:05;0.75;;;0.70;;
9186;SDS011;7273;48.902;9.410;2022-10-04T14:56:20;6.32;;;0.40;;
9186;SDS011;7273;48.902;9.410;2022-10-04T15:04:35;5.57;;;1.23;;
9186;SDS011;7273;48.902;9.410;2022-10-04T15:13:01;0.50;;;0.50;;
9186;SDS011;7273;48.902;9.410;2022-10-04T15:21:09;3.25;;;0.60;;
9186;SDS011;7273;48.902;9.410;2022-10-04T15:23:45;0.30;;;0.30;;
9186;SDS011;7273;48.902;9.410;2022-10-04T15:29:04;1.83;;;0.40;;
9186;SDS011;7273;48.902;9.410;2022-10-04T15:37:49;2.03;;;0.60;;
9186;SDS011;7273;48.902;9.410;2022-10-04T15:43:33;4.38;;;0.93;;
9186;SDS011;7273;48.902;9.410;2022-10-04T15:49:08;1.83;;;0.63;;
9186;SDS011;7273;48.902;9.410;2022-10-04T15:57:16;0.77;;;0.52;;
9186;SDS011;7273;48.902;9.410;2022-10-04T15:59:55;4.47;;;0.65;;
9186;SDS011;7273;48.902;9.410;2022-10-04T16:05:46;0.50;;;0.47;;
9186;SDS011;7273;48.902;9.410;2022-10-04T16:16:52;0.35;;;0.35;;
9186;SDS011;7273;48.902;9.410;2022-10-04T16:24:56;0.30;;;0.30;;
9186;SDS011;7273;48.902;9.410;2022-10-04T16:30:43;1.02;;;0.43;;
9186;SDS011;7273;48.902;9.410;2022-10-04T16:33:39;0.50;;;0.50;;
9186;SDS011;7273;48.902;9.410;2022-10-04T16:36:41;1.38;;;0.82;;
9186;SDS011;7273;48.902;9.410;2022-10-04T16:39:11;1.10;;;0.52;;
9186;SDS011;7273;48.902;9.410;2022-10-04T16:42:13;1.38;;;0.30;;
9186;SDS011;7273;48.902;9.410;2022-10-04T16:44:49;0.38;;;0.35;;
9186;SDS011;7273;48.902;9.410;2022-10-04T16:47:26;0.60;;;0.60;;
9186;SDS011;7273;48.902;9.410;2022-10-04T16:50:11;2.60;;;0.20;;
9186;SDS011;7273;48.902;9.410;2022-10-04T16:52:48;1.30;;;0.47;;
9186;SDS011;7273;48.902;9.410;2022-10-04T17:03:49;0.70;;;0.50;;
9186;SDS011;7273;48.902;9.410;2022-10-04T17:09:39;1.00;;;0.50;;
9186;SDS011;7273;48.902;9.410;2022-10-04T17:12:25;8.65;;;1.48;;
9186;SDS011;7273;48.902;9.410;2022-10-04T17:33:18;0.38;;;0.38;;
9186;SDS011;7273;48.902;9.410;2022-10-04T17:49:26;0.90;;;0.70;;
9186;SDS011;7273;48.902;9.410;2022-10-04T17:52:19;0.75;;;0.50;;
9186;SDS011;7273;48.902;9.410;2022-10-04T17:55:13;1.15;;;0.68;;
9186;SDS011;7273;48.902;9.410;2022-10-04T18:00:21;0.57;;;0.57;;
9186;SDS011;7273;48.902;9.410;2022-10-04T18:10:37;1.75;;;0.60;;
9186;SDS011;7273;48.902;9.410;2022-10-04T18:13:12;0.55;;;0.43;;
9186;SDS011;7273;48.902;9.410;2022-10-04T18:18:39;15.93;;;1.02;;
9186;SDS011;7273;48.902;9.410;2022-10-04T18:23:55;1.42;;;0.90;;
9186;SDS011;7273;48.902;9.410;2022-10-04T18:26:30;1.00;;;0.45;;
9186;SDS011;7273;48.902;9.410;2022-10-04T18:28:59;1.65;;;0.45;;
9186;SDS011;7273;48.902;9.410;2022-10-04T18:31:29;0.90;;;0.70;;
9186;SDS011;7273;48.902;9.410;2022-10-04T18:33:56;1.92;;;1.10;;
9186;SDS011;7273;48.902;9.410;2022-10-04T18:39:21;0.50;;;0.40;;
9186;SDS011;7273;48.902;9.410;2022-10-04T18:41:59;0.40;;;0.40;;
9186;SDS011;7273;48.902;9.410;2022-10-04T18:44:58;0.70;;;0.60;;
9186;SDS011;7273;48.902;9.410;2022-10-04T18:47:33;4.40;;;0.65;;
9186;SDS011;7273;48.902;9.410;2022-10-04T18:50:01;1.45;;;0.85;;
9186;SDS011;7273;48.902;9.410;2022-10-04T19:09:58;5.03;;;1.38;;
9186;SDS011;7273;48.902;9.410;2022-10-04T19:15:30;2.60;;;1.63;;
9186;SDS011;7273;48.902;9.410;2022-10-04T19:20:48;5.32;;;2.03;;
9186;SDS011;7273;48.902;9.410;2022-10-04T19:23:28;7.30;;;2.63;;
9186;SDS011;7273;48.902;9.410;2022-10-04T19:26:29;5.18;;;1.83;;
9186;SDS011;7273;48.902;9.410;2022-10-04T19:29:02;13.63;;;1.20;;
9186;SDS011;7273;48.902;9.410;2022-10-04T19:34:19;4.45;;;1.75;;
9186;SDS011;7273;48.902;9.410;2022-10-04T19:36:59;4.50;;;1.85;;
9186;SDS011;7273;48.902;9.410;2022-10-04T19:39:38;5.70;;;2.88;;
9186;SDS011;7273;48.902;9.410;2022-10-04T19:42:30;3.20;;;1.88;;
9186;SDS011;7273;48.902;9.410;2022-10-04T19:50:15;2.83;;;1.08;;
9186;SDS011;7273;48.902;9.410;2022-10-04T19:52:50;2.65;;;1.05;;
9186;SDS011;7273;48.902;9.410;2022-10-04T19:58:12;1.25;;;0.90;;
9186;SDS011;7273;48.902;9.410;2022-10-04T20:00:42;1.20;;;0.93;;
9186;SDS011;7273;48.902;9.410;2022-10-04T20:03:09;1.33;;;0.65;;
9186;SDS011;7273;48.902;9.410;2022-10-04T20:05:41;6.55;;;1.33;;
9186;SDS011;7273;48.902;9.410;2022-10-04T20:08:08;0.43;;;0.40;;
9186;SDS011;7273;48.902;9.410;2022-10-04T20:10:36;0.93;;;0.60;;
9186;SDS011;7273;48.902;9.410;2022-10-04T20:18:00;1.35;;;0.75;;
9186;SDS011;7273;48.902;9.410;2022-10-04T20:23:07;0.75;;;0.50;;
9186;SDS011;7273;48.902;9.410;2022-10-04T20:28:10;0.43;;;0.40;;
9186;SDS011;7273;48.902;9.410;2022-10-04T20:30:59;1.00;;;0.63;;
9186;SDS011;7273;48.902;9.410;2022-10-04T20:38:50;2.60;;;1.00;;
9186;SDS011;7273;48.902;9.410;2022-10-04T20:50:50;6.53;;;1.00;;
9186;SDS011;7273;48.902;9.410;2022-10-04T20:52:54;3.20;;;1.55;;
9186;SDS011;7273;48.902;9.410;2022-10-04T20:55:30;1.40;;;0.68;;
9186;SDS011;7273;48.902;9.410;2022-10-04T20:57:57;1.25;;;0.90;;
9186;SDS011;7273;48.902;9.410;2022-10-04T21:00:26;2.00;;;1.00;;
9186;SDS011;7273;48.902;9.410;2022-10-04T21:03:14;1.27;;;0.68;;
9186;SDS011;7273;48.902;9.410;2022-10-04T21:05:42;1.15;;;0.88;;
9186;SDS011;7273;48.902;9.410;2022-10-04T21:08:22;1.80;;;0.73;;
9186;SDS011;7273;48.902;9.410;2022-10-04T21:11:09;3.47;;;1.10;;
9186;SDS011;7273;48.902;9.410;2022-10-04T21:13:50;1.83;;;1.17;;
9186;SDS011;7273;48.902;9.410;2022-10-04T21:16:34;1.50;;;0.85;;
9186;SDS011;7273;48.902;9.410;2022-10-04T21:19:29;1.65;;;0.50;;
9186;SDS011;7273;48.902;9.410;2022-10-04T21:22:04;1.60;;;1.10;;
9186;SDS011;7273;48.902;9.410;2022-10-04T21:27:47;2.45;;;1.08;;
9186;SDS011;7273;48.902;9.410;2022-10-04T21:30:14;1.17;;;0.70;;
9186;SDS011;7273;48.902;9.410;2022-10-04T21:32:41;2.08;;;1.05;;
9186;SDS011;7273;48.902;9.410;2022-10-04T21:35:08;3.28;;;1.42;;
9186;SDS011;7273;48.902;9.410;2022-10-04T21:37:33;1.77;;;1.05;;
9186;SDS011;7273;48.902;9.410;2022-10-04T21:39:59;0.52;;;0.50;;
9186;SDS011;7273;48.902;9.410;2022-10-04T21:42:25;0.65;;;0.50;;
9186;SDS011;7273;48.902;9.410;2022-10-04T21:44:51;5.80;;;0.65;;
9186;SDS011;7273;48.902;9.410;2022-10-04T21:47:17;2.42;;;1.27;;
9186;SDS011;7273;48.902;9.410;2022-10-04T21:49:45;1.20;;;0.57;;
9186;SDS011;7273;48.902;9.410;2022-10-04T21:52:11;1.20;;;0.75;;
9186;SDS011;7273;48.902;9.410;2022-10-04T21:54:37;0.95;;;0.70;;
9186;SDS011;7273;48.902;9.410;2022-10-04T21:57:02;9.75;;;1.15;;
9186;SDS011;7273;48.902;9.410;2022-10-04T21:59:28;1.48;;;1.30;;
9186;SDS011;7273;48.902;9.410;2022-10-04T22:01:53;1.90;;;1.05;;
9186;SDS011;7273;48.902;9.410;2022-10-04T22:04:18;4.05;;;1.02;;
9186;SDS011;7273;48.902;9.410;2022-10-04T22:06:44;1.15;;;0.88;;
9186;SDS011;7273;48.902;9.410;2022-10-04T22:09:09;0.95;;;0.82;;
9186;SDS011;7273;48.902;9.410;2022-10-04T22:11:35;1.00;;;0.77;;
9186;SDS011;7273;48.902;9.410;2022-10-04T22:14:01;8.23;;;0.70;;
9186;SDS011;7273;48.902;9.410;2022-10-04T22:16:27;1.05;;;0.80;;
9186;SDS011;7273;48.902;9.410;2022-10-04T22:18:52;0.85;;;0.70;;
9186;SDS011;7273;48.902;9.410;2022-10-04T22:21:18;0.40;;;0.40;;
9186;SDS011;7273;48.902;9.410;2022-10-04T22:23:44;1.13;;;0.55;;
9186;SDS011;7273;48.902;9.410;2022-10-04T22:28:48;4.05;;;0.93;;
9186;SDS011;7273;48.902;9.410;2022-10-04T22:31:16;1.15;;;0.60;;
9186;SDS011;7273;48.902;9.410;2022-10-04T22:33:49;1.67;;;0.40;;
9186;SDS011;7273;48.902;9.410;2022-10-04T22:41:25;2.15;;;1.02;;
9186;SDS011;7273;48.902;9.410;2022-10-04T22:43:55;2.60;;;0.75;;
9186;SDS011;7273;48.902;9.410;2022-10-04T22:46:24;0.90;;;0.43;;
9186;SDS011;7273;48.902;9.410;2022-10-04T22:48:57;5.38;;;1.40;;
9186;SDS011;7273;48.902;9.410;2022-10-04T22:51:25;4.38;;;0.85;;
9186;SDS011;7273;48.902;9.410;2022-10-04T22:53:53;5.85;;;1.58;;
9186;SDS011;7273;48.902;9.410;2022-10-04T22:56:19;2.15;;;1.40;;
9186;SDS011;7273;48.902;9.410;2022-10-04T22:58:44;0.65;;;0.60;;
9186;SDS011;7273;48.902;9.410;2022-10-04T23:01:14;1.42;;;0.88;;
9186;SDS011;7273;48.902;9.410;2022-10-04T23:03:45;1.95;;;0.60;;
9186;SDS011;7273;48.902;9.410;2022-10-04T23:06:13;2.92;;;1.40;;
9186;SDS011;7273;48.902;9.410;2022-10-04T23:08:42;1.55;;;0.80;;
9186;SDS011;7273;48.902;9.410;2022-10-04T23:11:08;0.60;;;0.55;;
9186;SDS011;7273;48.902;9.410;2022-10-04T23:13:34;5.32;;;1.73;;
9186;SDS011;7273;48.902;9.410;2022-10-04T23:16:01;1.83;;;1.10;;
9186;SDS011;7273;48.902;9.410;2022-10-04T23:18:35;0.77;;;0.65;;
9186;SDS011;7273;48.902;9.410;2022-10-04T23:21:00;1.80;;;0.90;;
9186;SDS011;7273;48.902;9.410;2022-10-04T23:23:27;1.67;;;0.90;;
9186;SDS011;7273;48.902;9.410;2022-10-04T23:25:54;0.47;;;0.47;;
9186;SDS011;7273;48.902;9.410;2022-10-04T23:28:20;1.38;;;1.00;;
9186;SDS011;7273;48.902;9.410;2022-10-04T23:31:03;0.95;;;0.52;;
9186;SDS011;7273;48.902;9.410;2022-10-04T23:33:36;0.30;;;0.30;;
9186;SDS011;7273;48.902;9.410;2022-10-04T23:36:02;1.23;;;0.40;;
9186;SDS011;7273;48.902;9.410;2022-10-04T23:38:27;1.65;;;0.73;;
9186;SDS011;7273;48.902;9.410;2022-10-04T23:40:54;1.63;;;1.02;;
9186;SDS011;7273;48.902;9.410;2022-10-04T23:43:20;1.67;;;0.98;;
9186;SDS011;7273;48.902;9.410;2022-10-04T23:45:53;3.08;;;1.50;;
9186;SDS011;7273;48.902;9.410;2022-10-04T23:48:23;0.75;;;0.47;;
9186;SDS011;7273;48.902;9.410;2022-10-04T23:50:50;0.80;;;0.52;;
9186;SDS011;7273;48.902;9.410;2022-10-04T23:53:20;0.47;;;0.47;;
9186;SDS011;7273;48.902;9.410;2022-10-04T23:55:50;3.20;;;1.50;;
9186;SDS011;7273;48.902;9.410;2022-10-04T23:58:20;1.58;;;0.80;;
